sensor_id;sensor_type;location;lat;lon;timestamp;pressure;altitude;pressure_sealevel;temperature;humidity
45327;BME280;31062;49.678;24.560;2023-04-26T00:02:12;96821.16;;;6.29;85.05
45327;BME280;31062;49.678;24.560;2023-04-26T00:04:58;96911.22;;;6.86;85.06
45327;BME280;31062;49.678;24.560;2023-04-26T00:07:47;96872.00;;;6.47;84.90
45327;BME280;31062;49.678;24.560;2023-04-26T00:10:34;96922.09;;;6.74;85.42
45327;BME280;31062;49.678;24.560;2023-04-26T00:13:19;97024.88;;;7.25;85.35
45327;BME280;31062;49.678;24.560;2023-04-26T00:16:05;96888.97;;;6.43;85.64
45327;BME280;31062;49.678;24.560;2023-04-26T00:18:51;96894.88;;;6.40;85.83
45327;BME280;31062;49.678;24.560;2023-04-26T00:21:37;96869.81;;;6.17;85.51
45327;BME280;31062;49.678;24.560;2023-04-26T00:24:23;97024.44;;;7.19;85.78
45327;BME280;31062;49.678;24.560;2023-04-26T00:27:08;96872.41;;;6.14;86.02
45327;BME280;31062;49.678;24.560;2023-04-26T00:29:54;96879.25;;;6.13;86.04
45327;BME280;31062;49.678;24.560;2023-04-26T00:32:40;97070.72;;;7.30;85.53
45327;BME280;31062;49.678;24.560;2023-04-26T00:35:25;97041.28;;;7.23;86.47
45327;BME280;31062;49.678;24.560;2023-04-26T00:38:11;97045.06;;;7.18;85.77
45327;BME280;31062;49.678;24.560;2023-04-26T00:40:57;97016.63;;;7.06;86.48
45327;BME280;31062;49.678;24.560;2023-04-26T00:43:42;97076.69;;;7.26;86.02
45327;BME280;31062;49.678;24.560;2023-04-26T00:46:28;97058.84;;;7.18;86.04
45327;BME280;31062;49.678;24.560;2023-04-26T00:49:16;96933.41;;;6.40;86.35
45327;BME280;31062;49.678;24.560;2023-04-26T00:52:03;97059.72;;;7.20;86.10
45327;BME280;31062;49.678;24.560;2023-04-26T00:54:48;96874.84;;;5.91;86.38
45327;BME280;31062;49.678;24.560;2023-04-26T00:57:35;96878.06;;;5.97;86.20
45327;BME280;31062;49.678;24.560;2023-04-26T01:00:21;97024.31;;;6.97;86.51
45327;BME280;31062;49.678;24.560;2023-04-26T01:03:07;97028.22;;;6.94;86.21
45327;BME280;31062;49.678;24.560;2023-04-26T01:05:53;97057.38;;;7.17;85.73
45327;BME280;31062;49.678;24.560;2023-04-26T01:08:38;96878.59;;;5.86;85.83
45327;BME280;31062;49.678;24.560;2023-04-26T01:11:25;97006.47;;;6.79;86.12
45327;BME280;31062;49.678;24.560;2023-04-26T01:14:11;97087.41;;;7.13;86.75
45327;BME280;31062;49.678;24.560;2023-04-26T01:16:57;97075.53;;;7.20;86.36
45327;BME280;31062;49.678;24.560;2023-04-26T01:19:46;97100.47;;;7.22;86.35
45327;BME280;31062;49.678;24.560;2023-04-26T01:22:33;97094.22;;;7.21;nan
45327;BME280;31062;49.678;24.560;2023-04-26T01:25:19;97027.66;;;6.86;85.90
45327;BME280;31062;49.678;24.560;2023-04-26T01:28:05;97042.16;;;6.96;86.77
45327;BME280;31062;49.678;24.560;2023-04-26T01:30:51;96901.22;;;5.94;86.46
45327;BME280;31062;49.678;24.560;2023-04-26T01:33:37;96903.34;;;5.86;86.17
45327;BME280;31062;49.678;24.560;2023-04-26T01:36:22;97019.53;;;6.69;86.08
45327;BME280;31062;49.678;24.560;2023-04-26T01:39:09;96990.53;;;6.49;86.36
45327;BME280;31062;49.678;24.560;2023-04-26T01:41:56;97097.84;;;7.05;86.60
45327;BME280;31062;49.678;24.560;2023-04-26T01:44:42;96889.44;;;5.84;86.19
45327;BME280;31062;49.678;24.560;2023-04-26T01:47:27;97048.53;;;6.89;86.04
45327;BME280;31062;49.678;24.560;2023-04-26T01:50:13;96874.78;;;5.72;86.59
45327;BME280;31062;49.678;24.560;2023-04-26T01:52:58;96881.75;;;5.73;86.43
45327;BME280;31062;49.678;24.560;2023-04-26T01:55:43;97094.66;;;6.98;86.45
45327;BME280;31062;49.678;24.560;2023-04-26T01:58:29;96883.03;;;5.62;86.63
45327;BME280;31062;49.678;24.560;2023-04-26T02:01:14;97062.59;;;6.93;86.36
45327;BME280;31062;49.678;24.560;2023-04-26T02:04:02;96872.47;;;5.59;86.32
45327;BME280;31062;49.678;24.560;2023-04-26T02:06:49;96889.13;;;5.70;86.23
45327;BME280;31062;49.678;24.560;2023-04-26T02:09:35;97069.28;;;7.00;86.29
45327;BME280;31062;49.678;24.560;2023-04-26T02:12:20;96993.13;;;6.47;85.90
45327;BME280;31062;49.678;24.560;2023-04-26T02:15:07;97050.13;;;6.92;86.55
45327;BME280;31062;49.678;24.560;2023-04-26T02:17:53;97058.69;;;6.96;86.38
45327;BME280;31062;49.678;24.560;2023-04-26T02:20:43;97078.13;;;6.98;85.75
45327;BME280;31062;49.678;24.560;2023-04-26T02:23:30;96872.91;;;5.65;85.74
45327;BME280;31062;49.678;24.560;2023-04-26T02:26:15;97021.09;;;6.63;85.88
45327;BME280;31062;49.678;24.560;2023-04-26T02:29:01;97065.06;;;6.89;85.86
45327;BME280;31062;49.678;24.560;2023-04-26T02:31:46;96896.50;;;5.68;85.93
45327;BME280;31062;49.678;24.560;2023-04-26T02:34:33;97027.50;;;6.65;86.43
45327;BME280;31062;49.678;24.560;2023-04-26T02:37:18;96938.44;;;5.95;86.08
45327;BME280;31062;49.678;24.560;2023-04-26T02:40:06;97045.91;;;6.72;86.06
45327;BME280;31062;49.678;24.560;2023-04-26T02:42:55;97061.88;;;6.83;85.93
45327;BME280;31062;49.678;24.560;2023-04-26T02:45:42;96909.56;;;5.77;85.57
45327;BME280;31062;49.678;24.560;2023-04-26T02:48:29;96878.19;;;5.44;85.46
45327;BME280;31062;49.678;24.560;2023-04-26T02:51:15;97031.38;;;6.43;86.43
45327;BME280;31062;49.678;24.560;2023-04-26T02:54:00;97045.88;;;6.53;86.41
45327;BME280;31062;49.678;24.560;2023-04-26T02:56:49;97087.78;;;6.61;86.44
45327;BME280;31062;49.678;24.560;2023-04-26T02:59:35;97058.34;;;6.54;86.56
45327;BME280;31062;49.678;24.560;2023-04-26T03:02:20;96961.53;;;5.83;86.17
45327;BME280;31062;49.678;24.560;2023-04-26T03:05:07;97121.56;;;6.71;86.86
45327;BME280;31062;49.678;24.560;2023-04-26T03:07:54;97082.72;;;6.67;86.63
45327;BME280;31062;49.678;24.560;2023-04-26T03:10:40;96892.63;;;5.34;86.67
45327;BME280;31062;49.678;24.560;2023-04-26T03:13:26;97075.31;;;6.60;86.79
45327;BME280;31062;49.678;24.560;2023-04-26T03:16:13;96907.84;;;5.45;86.94
45327;BME280;31062;49.678;24.560;2023-04-26T03:18:59;97044.69;;;6.37;87.47
45327;BME280;31062;49.678;24.560;2023-04-26T03:21:44;97075.44;;;6.52;87.05
45327;BME280;31062;49.678;24.560;2023-04-26T03:24:30;96897.22;;;5.22;87.04
45327;BME280;31062;49.678;24.560;2023-04-26T03:27:15;97087.47;;;6.57;87.54
45327;BME280;31062;49.678;24.560;2023-04-26T03:30:01;97065.66;;;6.23;87.22
45327;BME280;31062;49.678;24.560;2023-04-26T03:32:50;97098.94;;;6.63;87.15
45327;BME280;31062;49.678;24.560;2023-04-26T03:35:36;97065.56;;;6.40;87.74
45327;BME280;31062;49.678;24.560;2023-04-26T03:38:22;97095.72;;;6.57;87.89
45327;BME280;31062;49.678;24.560;2023-04-26T03:41:10;96895.44;;;5.17;87.28
45327;BME280;31062;49.678;24.560;2023-04-26T03:43:55;96924.63;;;5.40;87.68
45327;BME280;31062;49.678;24.560;2023-04-26T03:46:42;96952.03;;;5.57;87.45
45327;BME280;31062;49.678;24.560;2023-04-26T03:49:27;97110.81;;;6.56;87.78
45327;BME280;31062;49.678;24.560;2023-04-26T03:52:13;97111.25;;;6.52;88.13
45327;BME280;31062;49.678;24.560;2023-04-26T03:54:59;97109.78;;;6.51;88.14
45327;BME280;31062;49.678;24.560;2023-04-26T03:57:44;97097.38;;;6.24;88.65
45327;BME280;31062;49.678;24.560;2023-04-26T04:00:30;97116.75;;;6.52;88.11
45327;BME280;31062;49.678;24.560;2023-04-26T04:03:16;96984.84;;;5.55;88.33
45327;BME280;31062;49.678;24.560;2023-04-26T04:06:02;97099.13;;;6.29;88.55
45327;BME280;31062;49.678;24.560;2023-04-26T04:08:48;97116.84;;;6.45;88.45
45327;BME280;31062;49.678;24.560;2023-04-26T04:11:34;96947.13;;;5.28;88.44
45327;BME280;31062;49.678;24.560;2023-04-26T04:14:19;96968.41;;;5.38;88.69
45327;BME280;31062;49.678;24.560;2023-04-26T04:17:04;97138.59;;;6.41;88.54
45327;BME280;31062;49.678;24.560;2023-04-26T04:19:51;96760.38;;;3.43;88.46
45327;BME280;31062;49.678;24.560;2023-04-26T04:22:37;96952.97;;;5.15;88.77
45327;BME280;31062;49.678;24.560;2023-04-26T04:25:25;97102.25;;;6.15;89.31
45327;BME280;31062;49.678;24.560;2023-04-26T04:28:13;96979.13;;;5.33;89.03
45327;BME280;31062;49.678;24.560;2023-04-26T04:31:01;97138.41;;;6.39;89.42
45327;BME280;31062;49.678;24.560;2023-04-26T04:33:47;97135.66;;;6.39;89.74
45327;BME280;31062;49.678;24.560;2023-04-26T04:36:33;97103.53;;;6.05;89.48
45327;BME280;31062;49.678;24.560;2023-04-26T04:39:19;97156.63;;;6.25;89.83
45327;BME280;31062;49.678;24.560;2023-04-26T04:42:04;97074.56;;;5.77;89.52
45327;BME280;31062;49.678;24.560;2023-04-26T04:44:50;97015.47;;;5.42;89.58
45327;BME280;31062;49.678;24.560;2023-04-26T04:47:37;97095.38;;;5.97;89.14
45327;BME280;31062;49.678;24.560;2023-04-26T04:50:24;97155.22;;;6.33;88.29
45327;BME280;31062;49.678;24.560;2023-04-26T04:53:09;97039.06;;;5.45;89.09
45327;BME280;31062;49.678;24.560;2023-04-26T04:55:56;97115.44;;;5.90;89.23
45327;BME280;31062;49.678;24.560;2023-04-26T04:58:42;97175.47;;;6.28;89.04
45327;BME280;31062;49.678;24.560;2023-04-26T05:01:30;97094.91;;;5.91;89.22
45327;BME280;31062;49.678;24.560;2023-04-26T05:04:20;97177.22;;;6.33;87.98
45327;BME280;31062;49.678;24.560;2023-04-26T05:07:06;96999.84;;;5.17;88.75
45327;BME280;31062;49.678;24.560;2023-04-26T05:09:52;96995.16;;;5.10;88.97
45327;BME280;31062;49.678;24.560;2023-04-26T05:12:38;97162.59;;;6.31;87.94
45327;BME280;31062;49.678;24.560;2023-04-26T05:15:24;97074.34;;;5.65;88.90
45327;BME280;31062;49.678;24.560;2023-04-26T05:18:10;97136.53;;;6.05;89.07
45327;BME280;31062;49.678;24.560;2023-04-26T05:20:56;97176.97;;;6.39;88.58
45327;BME280;31062;49.678;24.560;2023-04-26T05:23:45;97134.72;;;5.90;88.56
45327;BME280;31062;49.678;24.560;2023-04-26T05:26:30;97101.88;;;5.92;87.79
45327;BME280;31062;49.678;24.560;2023-04-26T05:29:35;97147.31;;;6.20;88.02
45327;BME280;31062;49.678;24.560;2023-04-26T05:32:26;97209.84;;;6.37;86.95
45327;BME280;31062;49.678;24.560;2023-04-26T05:35:30;97132.91;;;6.02;88.04
45327;BME280;31062;49.678;24.560;2023-04-26T05:38:17;97193.94;;;6.45;87.94
45327;BME280;31062;49.678;24.560;2023-04-26T05:41:02;97028.78;;;5.18;87.08
45327;BME280;31062;49.678;24.560;2023-04-26T05:43:48;97196.91;;;6.30;87.74
45327;BME280;31062;49.678;24.560;2023-04-26T05:46:34;97191.25;;;6.28;88.31
45327;BME280;31062;49.678;24.560;2023-04-26T05:49:19;97014.97;;;5.09;88.73
45327;BME280;31062;49.678;24.560;2023-04-26T05:52:05;97021.19;;;5.09;89.12
45327;BME280;31062;49.678;24.560;2023-04-26T05:54:51;97159.13;;;6.03;89.28
45327;BME280;31062;49.678;24.560;2023-04-26T05:57:36;97196.19;;;6.29;89.12
45327;BME280;31062;49.678;24.560;2023-04-26T06:00:24;97153.78;;;6.05;88.95
45327;BME280;31062;49.678;24.560;2023-04-26T06:03:10;97040.06;;;5.22;89.02
45327;BME280;31062;49.678;24.560;2023-04-26T06:05:56;97086.41;;;5.53;88.71
45327;BME280;31062;49.678;24.560;2023-04-26T06:08:44;97053.97;;;5.24;88.59
45327;BME280;31062;49.678;24.560;2023-04-26T06:11:31;97177.56;;;6.10;89.13
45327;BME280;31062;49.678;24.560;2023-04-26T06:14:17;97213.22;;;6.45;89.01
45327;BME280;31062;49.678;24.560;2023-04-26T06:17:16;97157.88;;;5.87;89.11
45327;BME280;31062;49.678;24.560;2023-04-26T06:20:02;97189.75;;;6.17;89.45
45327;BME280;31062;49.678;24.560;2023-04-26T06:22:49;97241.63;;;6.47;89.72
45327;BME280;31062;49.678;24.560;2023-04-26T06:25:35;97184.38;;;5.92;90.23
45327;BME280;31062;49.678;24.560;2023-04-26T06:28:22;97252.28;;;6.34;89.04
45327;BME280;31062;49.678;24.560;2023-04-26T06:31:07;97209.97;;;6.29;89.50
45327;BME280;31062;49.678;24.560;2023-04-26T06:33:54;97236.88;;;6.48;90.29
45327;BME280;31062;49.678;24.560;2023-04-26T06:36:40;97189.16;;;5.92;89.84
45327;BME280;31062;49.678;24.560;2023-04-26T06:39:26;97131.50;;;5.67;89.17
45327;BME280;31062;49.678;24.560;2023-04-26T06:42:11;97215.56;;;6.22;89.85
45327;BME280;31062;49.678;24.560;2023-04-26T06:45:32;97273.00;;;6.35;89.08
45327;BME280;31062;49.678;24.560;2023-04-26T06:48:19;97199.72;;;6.12;89.07
45327;BME280;31062;49.678;24.560;2023-04-26T06:51:06;97113.56;;;5.49;88.78
45327;BME280;31062;49.678;24.560;2023-04-26T06:53:53;97225.75;;;6.29;89.63
45327;BME280;31062;49.678;24.560;2023-04-26T06:56:39;97086.72;;;5.30;90.27
45327;BME280;31062;49.678;24.560;2023-04-26T06:59:25;97239.72;;;6.13;89.66
45327;BME280;31062;49.678;24.560;2023-04-26T07:02:11;97295.53;;;6.50;90.14
45327;BME280;31062;49.678;24.560;2023-04-26T07:04:59;97277.34;;;6.55;90.43
45327;BME280;31062;49.678;24.560;2023-04-26T07:07:45;97125.25;;;5.40;89.72
45327;BME280;31062;49.678;24.560;2023-04-26T07:10:30;97136.72;;;5.46;91.01
45327;BME280;31062;49.678;24.560;2023-04-26T07:13:18;97284.97;;;6.47;90.54
45327;BME280;31062;49.678;24.560;2023-04-26T07:16:03;97274.03;;;6.39;88.96
45327;BME280;31062;49.678;24.560;2023-04-26T07:18:49;97143.72;;;5.56;90.20
45327;BME280;31062;49.678;24.560;2023-04-26T07:21:36;97246.00;;;6.24;88.81
45327;BME280;31062;49.678;24.560;2023-04-26T07:24:22;97275.41;;;6.48;89.08
45327;BME280;31062;49.678;24.560;2023-04-26T07:27:08;97266.03;;;6.34;88.72
45327;BME280;31062;49.678;24.560;2023-04-26T07:29:54;97258.13;;;6.21;89.97
45327;BME280;31062;49.678;24.560;2023-04-26T07:32:40;97110.06;;;5.21;88.65
45327;BME280;31062;49.678;24.560;2023-04-26T07:35:25;97119.28;;;5.16;88.08
45327;BME280;31062;49.678;24.560;2023-04-26T07:38:11;97228.72;;;5.96;88.40
45327;BME280;31062;49.678;24.560;2023-04-26T07:40:58;97293.88;;;6.38;87.75
45327;BME280;31062;49.678;24.560;2023-04-26T07:43:45;97323.09;;;6.50;87.93
45327;BME280;31062;49.678;24.560;2023-04-26T07:46:34;97159.84;;;5.25;86.06
45327;BME280;31062;49.678;24.560;2023-04-26T07:49:19;97283.81;;;6.06;86.18
45327;BME280;31062;49.678;24.560;2023-04-26T07:52:05;97268.38;;;5.93;87.44
45327;BME280;31062;49.678;24.560;2023-04-26T07:54:50;97131.63;;;4.90;87.07
45327;BME280;31062;49.678;24.560;2023-04-26T07:57:36;97331.94;;;6.32;86.85
45327;BME280;31062;49.678;24.560;2023-04-26T08:00:22;97242.53;;;5.37;86.30
45327;BME280;31062;49.678;24.560;2023-04-26T08:03:10;97357.53;;;6.25;87.41
45327;BME280;31062;49.678;24.560;2023-04-26T08:05:57;97355.53;;;6.25;88.08
45327;BME280;31062;49.678;24.560;2023-04-26T08:08:43;97180.25;;;4.98;87.31
45327;BME280;31062;49.678;24.560;2023-04-26T08:11:33;97189.47;;;5.10;88.39
45327;BME280;31062;49.678;24.560;2023-04-26T08:14:19;97358.97;;;6.26;88.58
45327;BME280;31062;49.678;24.560;2023-04-26T08:17:04;97373.41;;;6.34;87.55
45327;BME280;31062;49.678;24.560;2023-04-26T08:19:51;97377.13;;;6.29;86.77
45327;BME280;31062;49.678;24.560;2023-04-26T08:22:37;97401.09;;;6.19;85.38
45327;BME280;31062;49.678;24.560;2023-04-26T08:25:23;97261.94;;;5.39;85.41
45327;BME280;31062;49.678;24.560;2023-04-26T08:28:08;97389.25;;;6.08;85.97
45327;BME280;31062;49.678;24.560;2023-04-26T08:30:58;97387.47;;;6.03;86.52
45327;BME280;31062;49.678;24.560;2023-04-26T08:33:44;97395.41;;;5.99;86.53
45327;BME280;31062;49.678;24.560;2023-04-26T08:36:29;97394.91;;;5.93;87.10
45327;BME280;31062;49.678;24.560;2023-04-26T08:39:16;97339.47;;;5.55;86.94
45327;BME280;31062;49.678;24.560;2023-04-26T08:42:12;97209.31;;;4.59;86.35
45327;BME280;31062;49.678;24.560;2023-04-26T08:45:00;97408.44;;;5.74;85.46
45327;BME280;31062;49.678;24.560;2023-04-26T08:47:52;97398.25;;;5.84;87.10
45327;BME280;31062;49.678;24.560;2023-04-26T08:50:38;97394.22;;;5.85;87.80
45327;BME280;31062;49.678;24.560;2023-04-26T08:53:24;97316.22;;;5.31;86.26
45327;BME280;31062;49.678;24.560;2023-04-26T08:56:10;97338.88;;;5.14;84.74
45327;BME280;31062;49.678;24.560;2023-04-26T08:58:57;97429.81;;;5.83;85.26
45327;BME280;31062;49.678;24.560;2023-04-26T09:01:43;97276.19;;;4.71;82.63
45327;BME280;31062;49.678;24.560;2023-04-26T09:04:29;97272.78;;;4.63;83.82
45327;BME280;31062;49.678;24.560;2023-04-26T09:10:25;97391.59;;;5.20;81.91
45327;BME280;31062;49.678;24.560;2023-04-26T09:13:11;97377.97;;;4.73;81.83
45327;BME280;31062;49.678;24.560;2023-04-26T09:15:57;97491.06;;;5.19;82.64
45327;BME280;31062;49.678;24.560;2023-04-26T09:18:49;97398.72;;;4.59;83.93
45327;BME280;31062;49.678;24.560;2023-04-26T09:21:43;97387.31;;;4.70;84.52
45327;BME280;31062;49.678;24.560;2023-04-26T09:24:45;97290.47;;;3.97;83.86
45327;BME280;31062;49.678;24.560;2023-04-26T09:27:36;97293.94;;;3.97;84.06
45327;BME280;31062;49.678;24.560;2023-04-26T09:30:21;97272.44;;;3.79;84.08
45327;BME280;31062;49.678;24.560;2023-04-26T09:33:07;97465.81;;;5.13;85.80
45327;BME280;31062;49.678;24.560;2023-04-26T09:35:54;97493.88;;;5.11;85.33
45327;BME280;31062;49.678;24.560;2023-04-26T09:38:42;97460.03;;;5.01;84.89
45327;BME280;31062;49.678;24.560;2023-04-26T09:41:46;97431.19;;;4.85;83.92
45327;BME280;31062;49.678;24.560;2023-04-26T09:44:32;97288.09;;;3.93;84.03
45327;BME280;31062;49.678;24.560;2023-04-26T09:47:20;97424.16;;;4.99;84.27
45327;BME280;31062;49.678;24.560;2023-04-26T09:50:06;97413.94;;;4.92;84.16
45327;BME280;31062;49.678;24.560;2023-04-26T09:52:53;97474.13;;;5.38;85.04
45327;BME280;31062;49.678;24.560;2023-04-26T09:55:38;97296.41;;;4.18;83.54
45327;BME280;31062;49.678;24.560;2023-04-26T09:58:24;97428.09;;;5.13;85.49
45327;BME280;31062;49.678;24.560;2023-04-26T10:01:09;97440.56;;;5.14;84.54
45327;BME280;31062;49.678;24.560;2023-04-26T10:04:01;97353.84;;;4.64;85.33
45327;BME280;31062;49.678;24.560;2023-04-26T10:06:46;97483.91;;;5.56;85.29
45327;BME280;31062;49.678;24.560;2023-04-26T10:09:33;97481.66;;;5.62;86.24
45327;BME280;31062;49.678;24.560;2023-04-26T10:12:19;97487.03;;;5.60;86.97
45327;BME280;31062;49.678;24.560;2023-04-26T10:15:05;97440.88;;;5.51;85.86
45327;BME280;31062;49.678;24.560;2023-04-26T10:17:53;97451.59;;;5.64;85.86
45327;BME280;31062;49.678;24.560;2023-04-26T10:20:40;97451.53;;;5.47;84.92
45327;BME280;31062;49.678;24.560;2023-04-26T10:23:28;97435.38;;;5.51;85.60
45327;BME280;31062;49.678;24.560;2023-04-26T10:26:49;97491.69;;;5.99;86.68
45327;BME280;31062;49.678;24.560;2023-04-26T10:39:16;97501.50;;;6.10;84.97
45327;BME280;31062;49.678;24.560;2023-04-26T10:45:27;97531.97;;;6.12;85.44
45327;BME280;31062;49.678;24.560;2023-04-26T10:51:12;97465.81;;;5.78;85.61
45327;BME280;31062;49.678;24.560;2023-04-26T10:53:57;97513.53;;;6.22;86.38
45327;BME280;31062;49.678;24.560;2023-04-26T10:59:32;97364.03;;;5.36;86.96
45327;BME280;31062;49.678;24.560;2023-04-26T11:08:27;97429.47;;;5.79;82.27
45327;BME280;31062;49.678;24.560;2023-04-26T11:11:16;97353.66;;;5.26;82.56
45327;BME280;31062;49.678;24.560;2023-04-26T11:14:04;97406.25;;;5.72;81.97
45327;BME280;31062;49.678;24.560;2023-04-26T11:16:50;97526.94;;;6.43;80.85
45327;BME280;31062;49.678;24.560;2023-04-26T11:19:35;97547.81;;;6.46;81.43
45327;BME280;31062;49.678;24.560;2023-04-26T11:22:21;97553.50;;;6.48;82.29
45327;BME280;31062;49.678;24.560;2023-04-26T11:25:11;97473.00;;;5.98;82.90
45327;BME280;31062;49.678;24.560;2023-04-26T11:28:01;97511.63;;;6.07;83.70
45327;BME280;31062;49.678;24.560;2023-04-26T11:30:48;97431.44;;;5.61;83.26
45327;BME280;31062;49.678;24.560;2023-04-26T11:33:34;97525.94;;;6.31;83.71
45327;BME280;31062;49.678;24.560;2023-04-26T11:36:21;97488.97;;;6.17;83.71
45327;BME280;31062;49.678;24.560;2023-04-26T11:39:06;97559.75;;;6.66;84.16
45327;BME280;31062;49.678;24.560;2023-04-26T11:42:06;97362.06;;;5.28;84.29
45327;BME280;31062;49.678;24.560;2023-04-26T11:44:52;97413.44;;;5.68;83.47
45327;BME280;31062;49.678;24.560;2023-04-26T11:47:40;97404.94;;;5.73;82.30
45327;BME280;31062;49.678;24.560;2023-04-26T11:50:26;97586.09;;;6.76;81.33
45327;BME280;31062;49.678;24.560;2023-04-26T11:53:14;97396.44;;;5.62;81.57
45327;BME280;31062;49.678;24.560;2023-04-26T11:55:59;97573.13;;;6.86;81.07
45327;BME280;31062;49.678;24.560;2023-04-26T11:58:47;97573.31;;;6.88;81.34
45327;BME280;31062;49.678;24.560;2023-04-26T12:01:33;97515.75;;;6.58;81.00
45327;BME280;31062;49.678;24.560;2023-04-26T12:04:25;97542.50;;;6.65;79.52
45327;BME280;31062;49.678;24.560;2023-04-26T12:07:17;97550.09;;;6.74;78.58
45327;BME280;31062;49.678;24.560;2023-04-26T12:10:16;97536.03;;;6.70;77.96
45327;BME280;31062;49.678;24.560;2023-04-26T12:13:02;97532.16;;;6.73;77.33
45327;BME280;31062;49.678;24.560;2023-04-26T12:15:47;97453.38;;;6.19;77.20
45327;BME280;31062;49.678;24.560;2023-04-26T12:18:35;97580.59;;;7.11;78.29
45327;BME280;31062;49.678;24.560;2023-04-26T12:21:25;97575.88;;;7.04;77.62
45327;BME280;31062;49.678;24.560;2023-04-26T12:24:26;97553.53;;;7.00;76.30
45327;BME280;31062;49.678;24.560;2023-04-26T12:27:20;97579.78;;;7.18;76.28
45327;BME280;31062;49.678;24.560;2023-04-26T12:30:10;97587.06;;;7.23;76.78
45327;BME280;31062;49.678;24.560;2023-04-26T12:32:57;97594.38;;;7.28;77.02
45327;BME280;31062;49.678;24.560;2023-04-26T12:35:53;97590.31;;;7.29;76.85
45327;BME280;31062;49.678;24.560;2023-04-26T12:38:38;97599.06;;;7.35;76.27
45327;BME280;31062;49.678;24.560;2023-04-26T12:41:25;97583.75;;;7.24;75.55
45327;BME280;31062;49.678;24.560;2023-04-26T12:44:11;97493.72;;;6.58;75.98
45327;BME280;31062;49.678;24.560;2023-04-26T12:46:57;97591.34;;;7.33;74.28
45327;BME280;31062;49.678;24.560;2023-04-26T12:49:43;97562.34;;;7.15;75.18
45327;BME280;31062;49.678;24.560;2023-04-26T12:52:29;97587.06;;;7.40;74.73
45327;BME280;31062;49.678;24.560;2023-04-26T12:55:15;97604.41;;;7.50;72.74
45327;BME280;31062;49.678;24.560;2023-04-26T12:58:01;97571.69;;;7.20;72.12
45327;BME280;31062;49.678;24.560;2023-04-26T13:00:47;97595.66;;;7.44;71.30
45327;BME280;31062;49.678;24.560;2023-04-26T13:03:32;97444.00;;;6.39;70.39
45327;BME280;31062;49.678;24.560;2023-04-26T13:06:18;97561.28;;;7.28;71.33
45327;BME280;31062;49.678;24.560;2023-04-26T13:09:04;97436.38;;;6.47;70.19
45327;BME280;31062;49.678;24.560;2023-04-26T13:11:52;97624.00;;;7.71;69.32
45327;BME280;31062;49.678;24.560;2023-04-26T13:14:37;97451.53;;;6.55;66.93
45327;BME280;31062;49.678;24.560;2023-04-26T13:17:24;97572.16;;;7.43;65.42
45327;BME280;31062;49.678;24.560;2023-04-26T13:20:11;97617.53;;;7.59;66.54
45327;BME280;31062;49.678;24.560;2023-04-26T13:22:56;97647.94;;;7.69;67.75
45327;BME280;31062;49.678;24.560;2023-04-26T13:25:42;97446.91;;;6.41;66.28
45327;BME280;31062;49.678;24.560;2023-04-26T13:28:27;97520.72;;;6.77;66.71
45327;BME280;31062;49.678;24.560;2023-04-26T13:31:13;97633.78;;;7.55;67.22
45327;BME280;31062;49.678;24.560;2023-04-26T13:34:02;97588.72;;;7.26;67.23
45327;BME280;31062;49.678;24.560;2023-04-26T13:36:48;97588.53;;;7.24;66.97
45327;BME280;31062;49.678;24.560;2023-04-26T13:39:33;97638.88;;;7.59;67.63
45327;BME280;31062;49.678;24.560;2023-04-26T13:42:18;97595.53;;;7.25;67.07
45327;BME280;31062;49.678;24.560;2023-04-26T13:45:05;97489.38;;;6.55;67.74
45327;BME280;31062;49.678;24.560;2023-04-26T13:47:53;97635.06;;;7.54;67.54
45327;BME280;31062;49.678;24.560;2023-04-26T13:50:40;97618.53;;;7.37;68.71
45327;BME280;31062;49.678;24.560;2023-04-26T13:53:26;97649.00;;;7.73;69.60
45327;BME280;31062;49.678;24.560;2023-04-26T13:56:12;97607.56;;;7.47;67.98
45327;BME280;31062;49.678;24.560;2023-04-26T13:58:58;97604.41;;;7.50;66.31
45327;BME280;31062;49.678;24.560;2023-04-26T14:01:46;97507.91;;;6.89;66.98
45327;BME280;31062;49.678;24.560;2023-04-26T14:04:31;97659.84;;;7.89;66.57
45327;BME280;31062;49.678;24.560;2023-04-26T14:07:18;97656.91;;;7.87;65.32
45327;BME280;31062;49.678;24.560;2023-04-26T14:10:05;97655.47;;;7.86;66.24
45327;BME280;31062;49.678;24.560;2023-04-26T14:12:52;97499.97;;;6.76;67.15
45327;BME280;31062;49.678;24.560;2023-04-26T14:15:38;97464.00;;;6.56;64.64
45327;BME280;31062;49.678;24.560;2023-04-26T14:18:24;97494.94;;;6.82;63.63
45327;BME280;31062;49.678;24.560;2023-04-26T14:21:11;97670.34;;;7.73;63.89
45327;BME280;31062;49.678;24.560;2023-04-26T14:23:56;97600.34;;;7.51;65.13
45327;BME280;31062;49.678;24.560;2023-04-26T14:26:43;97543.47;;;7.12;64.53
45327;BME280;31062;49.678;24.560;2023-04-26T14:29:28;97670.53;;;8.02;64.30
45327;BME280;31062;49.678;24.560;2023-04-26T14:32:13;97693.19;;;8.00;63.08
45327;BME280;31062;49.678;24.560;2023-04-26T14:34:59;97681.25;;;7.98;61.56
45327;BME280;31062;49.678;24.560;2023-04-26T14:37:44;97614.13;;;7.51;60.30
45327;BME280;31062;49.678;24.560;2023-04-26T14:40:30;97687.09;;;8.02;61.79
45327;BME280;31062;49.678;24.560;2023-04-26T14:43:15;97683.03;;;8.03;60.79
45327;BME280;31062;49.678;24.560;2023-04-26T14:46:02;97678.38;;;8.05;62.43
45327;BME280;31062;49.678;24.560;2023-04-26T14:48:49;97696.03;;;8.10;61.36
45327;BME280;31062;49.678;24.560;2023-04-26T14:51:44;97688.03;;;8.14;61.23
45327;BME280;31062;49.678;24.560;2023-04-26T14:54:39;97685.16;;;7.95;61.08
45327;BME280;31062;49.678;24.560;2023-04-26T14:57:25;97653.84;;;7.83;61.41
45327;BME280;31062;49.678;24.560;2023-04-26T15:00:11;97701.16;;;8.23;61.96
45327;BME280;31062;49.678;24.560;2023-04-26T15:03:00;97696.22;;;8.22;61.70
45327;BME280;31062;49.678;24.560;2023-04-26T15:05:46;97556.91;;;7.25;61.99
45327;BME280;31062;49.678;24.560;2023-04-26T15:08:31;97517.53;;;6.97;60.42
45327;BME280;31062;49.678;24.560;2023-04-26T15:11:18;97662.44;;;7.87;60.68
45327;BME280;31062;49.678;24.560;2023-04-26T15:14:04;97688.88;;;8.07;59.49